createdAt,value
2023-01-19T00:00:52.433Z,2.09
2023-01-19T00:03:18.970Z,2.09
2023-01-19T00:05:45.708Z,2.09
2023-01-19T00:08:15.871Z,2.11
2023-01-19T00:10:44.463Z,2.12
2023-01-19T00:13:13.328Z,2.13
2023-01-19T00:15:40.088Z,2.13
2023-01-19T00:18:08.033Z,2.13
2023-01-19T00:20:36.266Z,2.15
2023-01-19T00:23:04.750Z,2.15
2023-01-19T00:25:31.688Z,2.15
2023-01-19T00:28:01.257Z,2.10
2023-01-19T00:30:28.348Z,2.06
2023-01-19T00:32:54.910Z,1.96
2023-01-19T00:35:21.567Z,1.89
2023-01-19T00:37:48.281Z,1.88
2023-01-19T00:40:14.976Z,1.85
2023-01-19T00:42:44.405Z,1.82
2023-01-19T00:45:14.189Z,1.80
2023-01-19T00:47:41.742Z,1.80
2023-01-19T00:50:11.729Z,1.78
2023-01-19T00:52:39.637Z,1.74
2023-01-19T00:55:08.220Z,1.76
2023-01-19T00:57:34.864Z,1.78
2023-01-19T01:00:01.799Z,1.83
2023-01-19T01:02:28.531Z,1.87
2023-01-19T01:04:56.815Z,1.92
2023-01-19T01:07:24.399Z,1.95
2023-01-19T01:09:51.400Z,1.94
2023-01-19T01:12:17.985Z,1.95
2023-01-19T01:14:44.561Z,1.97
2023-01-19T01:17:14.404Z,1.97
2023-01-19T01:19:41.832Z,1.96
2023-01-19T01:22:09.789Z,1.94
2023-01-19T01:24:36.435Z,1.91
2023-01-19T01:27:03.038Z,1.91
2023-01-19T01:29:29.626Z,1.89
2023-01-19T01:31:56.101Z,1.87
2023-01-19T01:34:22.865Z,1.84
2023-01-19T01:36:49.427Z,1.81
2023-01-19T01:39:15.920Z,1.77
2023-01-19T01:41:42.443Z,1.77
2023-01-19T01:44:50.192Z,1.76
2023-01-19T01:47:23.671Z,1.78
2023-01-19T01:49:57.975Z,1.78
2023-01-19T01:52:27.994Z,1.82
2023-01-19T01:54:55.125Z,1.81
2023-01-19T01:57:23.148Z,1.85
2023-01-19T01:59:51.121Z,1.87
2023-01-19T02:02:40.043Z,1.90
2023-01-19T02:05:11.969Z,1.93
2023-01-19T02:08:20.069Z,1.96
2023-01-19T02:11:06.366Z,1.97
2023-01-19T02:13:39.915Z,2.00
2023-01-19T02:16:08.589Z,2.02
2023-01-19T02:18:36.123Z,2.05
2023-01-19T02:21:19.242Z,2.07
2023-01-19T02:23:47.281Z,2.09
2023-01-19T02:26:17.564Z,2.11
2023-01-19T02:28:50.323Z,2.12
2023-01-19T02:31:17.821Z,2.13
2023-01-19T02:33:44.473Z,2.14
2023-01-19T02:36:14.380Z,2.14
2023-01-19T02:38:44.837Z,2.17
2023-01-19T02:41:15.208Z,2.18
2023-01-19T02:43:43.338Z,2.22
2023-01-19T02:46:10.067Z,2.28
2023-01-19T02:48:36.892Z,2.29
2023-01-19T02:51:17.075Z,2.29
2023-01-19T02:54:05.520Z,2.30
2023-01-19T02:57:02.596Z,2.29
2023-01-19T02:59:43.869Z,2.32
2023-01-19T03:02:36.917Z,2.32
2023-01-19T03:05:37.968Z,2.34
2023-01-19T03:08:58.821Z,2.34
2023-01-19T03:11:30.754Z,2.34
2023-01-19T03:14:02.047Z,2.36
2023-01-19T03:16:57.328Z,2.36
2023-01-19T03:19:28.558Z,2.38
2023-01-19T03:21:59.295Z,2.38
2023-01-19T03:24:29.698Z,2.39
2023-01-19T03:27:06.594Z,2.39
2023-01-19T03:29:36.053Z,2.40
2023-01-19T03:32:09.308Z,2.42
2023-01-19T03:34:38.188Z,2.45
2023-01-19T03:37:07.954Z,2.43
2023-01-19T03:39:34.722Z,2.45
2023-01-19T03:42:08.449Z,2.46
2023-01-19T03:44:37.925Z,2.47
2023-01-19T03:47:06.483Z,2.46
2023-01-19T03:49:35.136Z,2.47
2023-01-19T03:52:01.785Z,2.45
2023-01-19T03:54:28.452Z,2.43
2023-01-19T03:56:54.980Z,2.42
2023-01-19T03:59:21.979Z,2.42
2023-01-19T04:01:49.204Z,2.41
2023-01-19T04:04:15.944Z,2.39
2023-01-19T04:06:43.347Z,2.36
2023-01-19T04:09:10.235Z,2.35
2023-01-19T04:11:36.883Z,2.32
2023-01-19T04:14:04.118Z,2.28
2023-01-19T04:16:30.655Z,2.26
2023-01-19T04:18:57.316Z,2.21
2023-01-19T04:21:24.047Z,2.17
2023-01-19T04:23:50.728Z,2.15
2023-01-19T04:26:17.339Z,2.14
2023-01-19T04:28:43.853Z,2.11
2023-01-19T04:31:10.640Z,2.08
2023-01-19T04:33:37.138Z,2.06
2023-01-19T04:36:04.239Z,2.02
2023-01-19T04:38:31.024Z,1.99
2023-01-19T04:40:57.668Z,1.97
2023-01-19T04:43:24.558Z,1.94
2023-01-19T04:45:51.439Z,1.92
2023-01-19T04:48:19.176Z,1.92
2023-01-19T04:50:46.580Z,1.91
2023-01-19T04:53:13.936Z,1.88
2023-01-19T04:55:41.075Z,1.88
2023-01-19T04:58:08.076Z,1.87
2023-01-19T05:00:34.808Z,1.86
2023-01-19T05:03:01.915Z,1.86
2023-01-19T05:05:28.718Z,1.83
2023-01-19T05:07:55.742Z,1.83
2023-01-19T05:10:22.561Z,1.82
2023-01-19T05:12:49.548Z,1.81
2023-01-19T05:15:16.259Z,1.80
2023-01-19T05:17:43.013Z,1.80
2023-01-19T05:20:14.331Z,1.81
2023-01-19T05:22:42.379Z,1.81
2023-01-19T05:25:09.715Z,1.82
2023-01-19T05:27:37.384Z,1.83
2023-01-19T05:30:05.632Z,1.85
2023-01-19T05:32:32.316Z,1.86
2023-01-19T05:34:59.121Z,1.88
2023-01-19T05:37:26.969Z,1.88
2023-01-19T05:39:53.894Z,1.89
2023-01-19T05:42:21.059Z,1.91
2023-01-19T05:44:47.659Z,1.93
2023-01-19T05:47:14.389Z,1.93
2023-01-19T05:49:41.205Z,1.94
2023-01-19T05:52:07.812Z,1.95
2023-01-19T05:54:34.422Z,1.97
2023-01-19T05:57:01.592Z,1.99
2023-01-19T05:59:28.973Z,2.02
2023-01-19T06:01:55.790Z,2.05
2023-01-19T06:04:22.394Z,2.07
2023-01-19T06:06:50.135Z,2.07
2023-01-19T06:09:19.919Z,2.07
2023-01-19T06:11:47.343Z,2.05
2023-01-19T06:14:14.177Z,2.05
2023-01-19T06:16:40.819Z,2.05
2023-01-19T06:19:07.840Z,2.02
2023-01-19T06:21:34.605Z,2.01
2023-01-19T06:24:01.393Z,2.00
2023-01-19T06:26:28.227Z,2.00
2023-01-19T06:28:55.572Z,2.04
2023-01-19T06:31:22.611Z,2.09
2023-01-19T06:33:50.010Z,2.13
2023-01-19T06:36:16.590Z,2.14
2023-01-19T06:38:43.319Z,2.15
2023-01-19T06:41:09.963Z,2.16
2023-01-19T06:43:36.491Z,2.18
2023-01-19T06:46:04.025Z,2.19
2023-01-19T06:48:30.881Z,2.19
2023-01-19T06:50:59.501Z,2.21
2023-01-19T06:53:28.200Z,2.22
2023-01-19T06:55:59.859Z,2.22
2023-01-19T06:58:27.699Z,2.22
2023-01-19T07:00:54.561Z,2.22
2023-01-19T07:03:23.146Z,2.22
2023-01-19T07:05:53.587Z,2.20
2023-01-19T07:08:20.228Z,2.21
2023-01-19T07:11:26.759Z,2.20
2023-01-19T07:13:34.604Z,2.22
2023-01-19T07:16:08.996Z,2.21
2023-01-19T07:18:37.335Z,2.20
2023-01-19T07:21:05.183Z,2.20
2023-01-19T07:23:31.945Z,2.17
2023-01-19T07:26:00.935Z,2.16
2023-01-19T07:28:29.295Z,2.13
2023-01-19T07:30:56.052Z,2.11
2023-01-19T07:33:23.225Z,2.09
2023-01-19T07:35:50.769Z,2.09
2023-01-19T07:38:19.176Z,2.12
2023-01-19T07:40:48.829Z,2.16
2023-01-19T07:43:16.428Z,2.21
2023-01-19T07:45:43.404Z,2.28
2023-01-19T07:48:10.124Z,2.36
2023-01-19T07:50:36.799Z,2.43
2023-01-19T07:53:07.217Z,2.51
2023-01-19T07:55:34.169Z,2.57
2023-01-19T07:58:00.958Z,2.65
2023-01-19T08:00:27.794Z,2.69
2023-01-19T08:03:00.444Z,2.74
2023-01-19T08:05:29.410Z,2.78
2023-01-19T08:07:57.716Z,2.80
2023-01-19T08:10:28.741Z,2.81
2023-01-19T08:12:57.182Z,2.80
2023-01-19T08:15:24.795Z,2.80
2023-01-19T08:18:02.952Z,2.83
2023-01-19T08:20:29.976Z,2.82
2023-01-19T08:23:04.941Z,2.86
2023-01-19T08:25:44.323Z,2.87
2023-01-19T08:28:13.290Z,2.91
2023-01-19T08:30:40.829Z,2.92
2023-01-19T08:33:08.288Z,2.94
2023-01-19T08:35:42.991Z,2.95
2023-01-19T08:38:10.593Z,2.99
2023-01-19T08:40:40.049Z,3.02
2023-01-19T08:43:08.838Z,3.02
2023-01-19T08:45:51.611Z,3.04
2023-01-19T08:48:22.197Z,3.07
2023-01-19T08:50:50.213Z,3.08
2023-01-19T08:53:17.558Z,3.11
2023-01-19T08:55:44.142Z,3.14
2023-01-19T08:58:12.570Z,3.18
2023-01-19T09:00:40.360Z,3.23
2023-01-19T09:03:09.094Z,3.27
2023-01-19T09:05:39.651Z,3.30
2023-01-19T09:08:11.408Z,3.33
2023-01-19T09:10:39.381Z,3.34
2023-01-19T09:13:08.547Z,3.35
2023-01-19T09:15:35.988Z,3.38
2023-01-19T09:18:03.457Z,3.47
2023-01-19T09:20:34.838Z,3.49
2023-01-19T09:23:01.558Z,3.56
2023-01-19T09:25:28.199Z,3.61
2023-01-19T09:27:56.119Z,3.64
2023-01-19T09:30:23.172Z,3.66
2023-01-19T09:32:49.768Z,3.70
2023-01-19T09:35:16.630Z,3.72
2023-01-19T09:37:47.293Z,3.77
2023-01-19T09:40:15.928Z,3.78
2023-01-19T09:42:45.144Z,3.80
2023-01-19T09:45:37.485Z,3.83
2023-01-19T09:48:07.081Z,3.86
2023-01-19T09:50:40.077Z,3.91
2023-01-19T09:53:16.615Z,3.90
2023-01-19T09:55:43.461Z,3.95
2023-01-19T09:58:16.446Z,4.02
2023-01-19T10:00:47.802Z,4.03
2023-01-19T10:03:15.559Z,4.09
2023-01-19T10:05:55.508Z,4.14
2023-01-19T10:08:40.701Z,4.17
2023-01-19T10:11:34.520Z,4.19
2023-01-19T10:14:21.985Z,4.26
2023-01-19T10:17:20.468Z,4.33
2023-01-19T10:19:53.975Z,4.33
2023-01-19T10:22:23.844Z,4.41
2023-01-19T10:25:00.788Z,4.45
2023-01-19T10:27:32.222Z,4.47
2023-01-19T10:30:00.834Z,4.53
2023-01-19T10:32:33.152Z,4.55
2023-01-19T10:35:01.136Z,4.58
2023-01-19T10:37:30.644Z,4.63
2023-01-19T10:40:09.627Z,4.69
2023-01-19T10:42:38.716Z,4.74
2023-01-19T10:45:19.860Z,4.78
2023-01-19T10:47:48.501Z,4.81
2023-01-19T10:50:32.580Z,4.88
2023-01-19T10:53:05.981Z,4.89
2023-01-19T10:55:38.247Z,4.98
2023-01-19T10:58:06.901Z,5.03
2023-01-19T11:00:35.015Z,5.06
2023-01-19T11:03:02.088Z,5.12
2023-01-19T11:05:33.219Z,5.14
2023-01-19T11:08:00.091Z,5.15
2023-01-19T11:10:29.551Z,5.18
2023-01-19T11:13:08.749Z,5.23
2023-01-19T11:15:35.798Z,5.28
2023-01-19T11:18:05.640Z,5.35
2023-01-19T11:20:51.248Z,5.40
2023-01-19T11:23:34.197Z,5.40
2023-01-19T11:26:05.340Z,5.43
2023-01-19T11:28:36.009Z,5.48
2023-01-19T11:31:15.490Z,5.48
2023-01-19T11:33:49.839Z,5.47
2023-01-19T11:36:19.100Z,5.47
2023-01-19T11:38:49.099Z,5.42
2023-01-19T11:41:29.157Z,5.36
2023-01-19T11:43:58.639Z,5.37
2023-01-19T11:46:31.998Z,5.33
2023-01-19T11:49:12.823Z,5.37
2023-01-19T11:51:51.098Z,5.41
2023-01-19T11:54:30.411Z,5.45
2023-01-19T11:56:59.603Z,5.49
2023-01-19T11:59:26.617Z,5.50
2023-01-19T12:01:57.952Z,5.45
2023-01-19T12:04:34.670Z,5.51
2023-01-19T12:07:09.063Z,5.50
2023-01-19T12:09:42.897Z,5.52
2023-01-19T12:12:12.520Z,5.53
2023-01-19T12:14:54.090Z,5.59
2023-01-19T12:17:28.794Z,5.54
2023-01-19T12:20:13.861Z,5.53
2023-01-19T12:22:52.858Z,5.48
2023-01-19T12:25:32.264Z,5.50
2023-01-19T12:27:59.914Z,5.43
2023-01-19T12:30:29.578Z,5.35
2023-01-19T12:33:22.683Z,5.32
2023-01-19T12:36:16.910Z,5.27
2023-01-19T12:39:04.491Z,5.23
2023-01-19T12:41:36.768Z,5.20
2023-01-19T12:44:12.477Z,5.20
2023-01-19T12:46:55.111Z,5.19
2023-01-19T12:49:42.607Z,5.23
2023-01-19T12:52:24.205Z,5.27
2023-01-19T12:55:00.731Z,5.35
2023-01-19T12:57:30.325Z,5.37
2023-01-19T13:00:00.092Z,5.39
2023-01-19T13:02:27.902Z,5.44
2023-01-19T13:05:25.040Z,5.59
2023-01-19T13:08:09.513Z,5.68
2023-01-19T13:11:00.795Z,5.69
2023-01-19T13:13:30.270Z,5.76
2023-01-19T13:16:20.927Z,5.78
2023-01-19T13:18:52.163Z,5.84
2023-01-19T13:21:36.549Z,5.87
2023-01-19T13:24:10.715Z,5.93
2023-01-19T13:26:39.975Z,5.96
2023-01-19T13:29:10.553Z,6.02
2023-01-19T13:31:42.774Z,6.03
2023-01-19T13:34:14.552Z,6.01
2023-01-19T13:36:45.627Z,5.99
2023-01-19T13:42:48.607Z,6.02
2023-01-19T13:45:27.478Z,5.95
2023-01-19T13:47:56.761Z,5.95
2023-01-19T13:50:25.102Z,5.95
2023-01-19T13:52:54.039Z,5.93
2023-01-19T13:55:21.458Z,5.93
2023-01-19T13:57:50.275Z,5.90
2023-01-19T14:00:19.727Z,5.86
2023-01-19T14:03:01.184Z,5.78
2023-01-19T14:05:34.377Z,5.77
2023-01-19T14:08:13.151Z,5.70
2023-01-19T14:10:50.378Z,5.67
2023-01-19T14:13:22.760Z,5.66
2023-01-19T14:15:54.070Z,5.67
2023-01-19T14:18:27.069Z,5.61
2023-01-19T14:20:57.885Z,5.59
2023-01-19T14:23:44.832Z,5.57
2023-01-19T14:26:51.290Z,5.54
2023-01-19T14:29:34.874Z,5.50
2023-01-19T14:32:01.381Z,5.46
2023-01-19T14:34:30.883Z,5.41
2023-01-19T14:37:00.235Z,5.42
2023-01-19T14:39:30.896Z,5.43
2023-01-19T14:42:00.995Z,5.43
2023-01-19T14:44:38.948Z,5.43
2023-01-19T14:47:07.271Z,5.41
2023-01-19T14:49:41.871Z,5.42
2023-01-19T14:52:24.837Z,5.41
2023-01-19T14:54:53.564Z,5.39
2023-01-19T14:57:20.134Z,5.38
2023-01-19T14:59:49.657Z,5.37
2023-01-19T15:02:19.184Z,5.38
2023-01-19T15:04:48.077Z,5.35
2023-01-19T15:07:19.539Z,5.37
2023-01-19T15:09:47.237Z,5.33
2023-01-19T15:12:17.465Z,5.33
2023-01-19T15:14:45.368Z,5.33
2023-01-19T15:17:25.239Z,5.33
2023-01-19T15:19:55.604Z,5.32
2023-01-19T15:22:25.223Z,5.28
2023-01-19T15:24:51.835Z,5.26
2023-01-19T15:27:19.663Z,5.24
2023-01-19T15:29:46.228Z,5.23
2023-01-19T15:32:14.253Z,5.20
2023-01-19T15:34:41.629Z,5.17
2023-01-19T15:37:08.904Z,5.16
2023-01-19T15:39:35.721Z,5.13
2023-01-19T15:42:02.395Z,5.11
2023-01-19T15:44:29.806Z,5.08
2023-01-19T15:46:57.486Z,5.09
2023-01-19T15:49:24.011Z,5.06
2023-01-19T15:51:50.613Z,5.06
2023-01-19T15:54:18.476Z,5.04
2023-01-19T15:56:45.080Z,5.01
2023-01-19T15:59:11.765Z,4.99
2023-01-19T16:01:40.117Z,4.98
2023-01-19T16:04:09.749Z,4.93
2023-01-19T16:06:36.443Z,4.89
2023-01-19T16:09:03.952Z,4.88
2023-01-19T16:11:35.250Z,4.84
2023-01-19T16:14:01.985Z,4.80
2023-01-19T16:16:28.803Z,4.75
2023-01-19T16:18:56.291Z,4.73
2023-01-19T16:21:23.862Z,4.71
2023-01-19T16:23:51.054Z,4.70
2023-01-19T16:26:34.265Z,4.71
2023-01-19T16:29:08.658Z,4.70
2023-01-19T16:31:38.409Z,4.68
2023-01-19T16:34:05.175Z,4.68
2023-01-19T16:36:33.801Z,4.65
2023-01-19T16:39:02.401Z,4.62
2023-01-19T16:41:29.396Z,4.59
2023-01-19T16:43:58.031Z,4.54
2023-01-19T16:46:30.422Z,4.52
2023-01-19T16:49:01.687Z,4.48
2023-01-19T16:51:28.772Z,4.45
2023-01-19T16:53:55.664Z,4.40
2023-01-19T16:56:22.510Z,4.36
2023-01-19T16:58:53.317Z,4.32
2023-01-19T17:01:20.865Z,4.29
2023-01-19T17:03:47.965Z,4.23
2023-01-19T17:06:18.460Z,4.18
2023-01-19T17:08:45.078Z,4.15
2023-01-19T17:11:19.482Z,4.09
2023-01-19T17:13:47.479Z,4.02
2023-01-19T17:16:17.366Z,3.97
2023-01-19T17:18:44.050Z,3.94
2023-01-19T17:21:11.017Z,3.90
2023-01-19T17:23:42.745Z,3.86
2023-01-19T17:26:09.852Z,3.85
2023-01-19T17:28:36.652Z,3.82
2023-01-19T17:31:11.820Z,3.78
2023-01-19T17:33:39.704Z,3.71
2023-01-19T17:36:09.501Z,3.64
2023-01-19T17:38:37.051Z,3.59
2023-01-19T17:41:14.197Z,3.53
2023-01-19T17:43:41.328Z,3.48
2023-01-19T17:46:08.242Z,3.41
2023-01-19T17:48:34.928Z,3.39
2023-01-19T17:51:03.588Z,3.38
2023-01-19T17:53:30.224Z,3.36
2023-01-19T17:56:04.743Z,3.32
2023-01-19T17:58:31.653Z,3.33
2023-01-19T18:00:58.946Z,3.35
2023-01-19T18:03:25.599Z,3.36
2023-01-19T18:05:55.865Z,3.35
2023-01-19T18:08:22.484Z,3.34
2023-01-19T18:10:56.671Z,3.36
2023-01-19T18:13:24.300Z,3.31
2023-01-19T18:15:51.057Z,3.27
2023-01-19T18:18:18.247Z,3.24
2023-01-19T18:20:45.026Z,3.20
2023-01-19T18:23:12.281Z,3.17
2023-01-19T18:25:39.797Z,3.14
2023-01-19T18:28:07.041Z,3.13
2023-01-19T18:30:37.504Z,3.14
2023-01-19T18:33:04.551Z,3.09
2023-01-19T18:35:31.211Z,3.06
2023-01-19T18:37:58.592Z,3.08
2023-01-19T18:40:25.641Z,3.07
2023-01-19T18:42:52.357Z,3.10
2023-01-19T18:45:18.885Z,3.10
2023-01-19T18:47:45.409Z,3.09
2023-01-19T18:50:14.638Z,3.09
2023-01-19T18:52:41.309Z,3.10
2023-01-19T18:55:08.187Z,3.07
2023-01-19T18:57:35.792Z,3.04
2023-01-19T19:00:04.145Z,3.02
2023-01-19T19:02:30.817Z,3.01
2023-01-19T19:04:57.527Z,3.00
2023-01-19T19:07:24.736Z,2.98
2023-01-19T19:09:51.346Z,2.97
2023-01-19T19:12:17.919Z,2.94
2023-01-19T19:14:44.561Z,2.94
2023-01-19T19:17:11.271Z,2.91
2023-01-19T19:19:37.840Z,2.93
2023-01-19T19:22:04.382Z,2.96
2023-01-19T19:24:32.117Z,3.01
2023-01-19T19:26:58.826Z,3.00
2023-01-19T19:29:26.350Z,2.99
2023-01-19T19:31:52.968Z,2.94
2023-01-19T19:34:19.559Z,2.92
2023-01-19T19:36:46.163Z,2.90
2023-01-19T19:39:12.813Z,2.91
2023-01-19T19:41:39.605Z,2.90
2023-01-19T19:44:06.120Z,2.86
2023-01-19T19:46:32.687Z,2.84
2023-01-19T19:48:59.266Z,2.86
2023-01-19T19:51:28.126Z,2.85
2023-01-19T19:53:56.702Z,2.84
2023-01-19T19:56:25.192Z,2.84
2023-01-19T19:58:54.112Z,2.87
2023-01-19T20:01:27.204Z,2.87
2023-01-19T20:03:54.910Z,2.78
2023-01-19T20:06:23.138Z,2.75
2023-01-19T20:08:50.967Z,2.73
2023-01-19T20:11:20.639Z,2.71
2023-01-19T20:13:47.996Z,2.73
2023-01-19T20:16:17.585Z,2.73
2023-01-19T20:18:48.616Z,2.74
2023-01-19T20:21:24.020Z,2.76
2023-01-19T20:23:52.931Z,2.80
2023-01-19T20:26:22.974Z,2.77
2023-01-19T20:28:49.717Z,2.77
2023-01-19T20:31:23.194Z,2.76
2023-01-19T20:33:51.465Z,2.76
2023-01-19T20:36:18.968Z,2.73
2023-01-19T20:38:45.717Z,2.72
2023-01-19T20:41:13.385Z,2.61
2023-01-19T20:43:40.429Z,2.56
2023-01-19T20:46:07.347Z,2.43
2023-01-19T20:48:34.088Z,2.43
2023-01-19T20:51:06.868Z,2.41
2023-01-19T20:53:34.579Z,2.44
2023-01-19T20:56:08.584Z,2.49
2023-01-19T20:58:35.161Z,2.51
2023-01-19T21:01:10.114Z,2.51
2023-01-19T21:03:36.677Z,2.57
2023-01-19T21:06:03.305Z,2.59
2023-01-19T21:08:29.772Z,2.57
2023-01-19T21:10:57.256Z,2.55
2023-01-19T21:13:23.990Z,2.50
2023-01-19T21:15:50.501Z,2.43
2023-01-19T21:18:17.111Z,2.38
2023-01-19T21:20:44.938Z,2.30
2023-01-19T21:23:11.500Z,2.25
2023-01-19T21:25:38.326Z,2.19
2023-01-19T21:28:04.997Z,2.14
2023-01-19T21:30:31.847Z,2.08
2023-01-19T21:32:58.436Z,2.00
2023-01-19T21:35:25.035Z,1.96
2023-01-19T21:37:51.551Z,1.90
2023-01-19T21:40:18.546Z,1.83
2023-01-19T21:42:45.137Z,1.77
2023-01-19T21:45:11.868Z,1.72
2023-01-19T21:47:39.030Z,1.67
2023-01-19T21:50:05.922Z,1.60
2023-01-19T21:52:33.780Z,1.53
2023-01-19T21:55:00.617Z,1.47
2023-01-19T21:57:27.188Z,1.41
2023-01-19T21:59:53.664Z,1.37
2023-01-19T22:02:37.198Z,1.35
2023-01-19T22:05:06.857Z,1.32
2023-01-19T22:07:33.483Z,1.27
2023-01-19T22:10:00.152Z,1.21
2023-01-19T22:12:26.922Z,1.16
2023-01-19T22:14:53.565Z,1.11
2023-01-19T22:17:20.287Z,1.09
2023-01-19T22:19:48.620Z,1.04
2023-01-19T22:22:15.544Z,1.01
2023-01-19T22:24:46.519Z,0.99
2023-01-19T22:27:13.368Z,1.00
2023-01-19T22:29:39.913Z,0.97
2023-01-19T22:32:06.663Z,0.97
2023-01-19T22:34:33.469Z,0.94
2023-01-19T22:37:00.131Z,0.91
2023-01-19T22:39:26.667Z,0.89
2023-01-19T22:41:53.233Z,0.85
2023-01-19T22:44:21.650Z,0.84
2023-01-19T22:46:51.119Z,0.83
2023-01-19T22:49:18.512Z,0.82
2023-01-19T22:51:45.476Z,0.85
2023-01-19T22:54:12.545Z,0.84
2023-01-19T22:56:40.567Z,0.85
2023-01-19T22:59:07.196Z,0.85
2023-01-19T23:01:37.382Z,0.84
2023-01-19T23:04:05.860Z,0.83
2023-01-19T23:06:36.929Z,0.80
2023-01-19T23:09:07.421Z,0.76
2023-01-19T23:11:40.559Z,0.76
2023-01-19T23:14:14.189Z,0.75
2023-01-19T23:16:40.898Z,0.73
2023-01-19T23:19:07.631Z,0.71
2023-01-19T23:21:34.487Z,0.68
2023-01-19T23:24:03.302Z,0.64
2023-01-19T23:26:31.135Z,0.64
2023-01-19T23:29:00.135Z,0.66
2023-01-19T23:31:28.195Z,0.64
2023-01-19T23:33:57.679Z,0.64
2023-01-19T23:36:26.765Z,0.64
2023-01-19T23:38:56.017Z,0.64
2023-01-19T23:41:23.725Z,0.63
2023-01-19T23:43:51.371Z,0.61
2023-01-19T23:46:20.104Z,0.59
2023-01-19T23:48:47.124Z,0.58
2023-01-19T23:51:19.399Z,0.58
2023-01-19T23:53:46.761Z,0.55
2023-01-19T23:56:14.583Z,0.55
2023-01-19T23:58:41.782Z,0.52
